UAE256 WIII-OMDB
Flight info
| Callsign | UAE256 |
|---|---|
| Flight time | N/A |
| Altitude | 36000 |
| Route | RIMTI M766 OBMAT L896 NISOK/N0493F380 L896 MMV P574 ADPOP/N0488F400 P574 PAROK Q899 ITURA M762 VAXAS/N0398F240 M762 MIVEK P574 IMPED |
| Aircraft | A388/J-SADE2E3FGHIJ3J4J5M1RWXY/LB1D1 |
Departure
| Time | 2026-04-30 18:05 |
|---|---|
| Airport | Soekarno-Hatta International Airport (WIII) |
Arrival
| Time | N/A |
|---|---|
| Airport | Dubai International Airport (OMDB) |
| Time | Latitude | Longitude | Altitude | Speed | Heading |
|---|---|---|---|---|---|
| 2026-04-30 17:39 | -6.11747 | 106.66459 | 43 ft | 0 kts | 158° |
| 2026-04-30 17:50 | -6.11726 | 106.66451 | 42 ft | 1 kts | 158° |
| 2026-04-30 17:51 | -6.11708 | 106.66443 | 39 ft | 1 kts | 158° |
| 2026-04-30 17:52 | -6.11690 | 106.66436 | 39 ft | 1 kts | 158° |
| 2026-04-30 17:53 | -6.11664 | 106.66417 | 42 ft | 1 kts | 138° |
| 2026-04-30 17:54 | -6.11656 | 106.66397 | 39 ft | 0 kts | 85° |
| 2026-04-30 17:58 | -6.11664 | 106.66360 | 40 ft | 1 kts | 73° |
| 2026-04-30 17:59 | -6.11653 | 106.66374 | 37 ft | 4 kts | 35° |
| 2026-04-30 18:00 | -6.11420 | 106.66363 | 43 ft | 12 kts | 43° |
| 2026-04-30 18:00 | -6.11297 | 106.66633 | 43 ft | 17 kts | 68° |
| 2026-04-30 18:01 | -6.11205 | 106.66864 | 43 ft | 19 kts | 67° |
| 2026-04-30 18:02 | -6.11060 | 106.66998 | 43 ft | 6 kts | 340° |
| 2026-04-30 18:02 | -6.11052 | 106.66995 | 43 ft | 3 kts | 340° |
| 2026-04-30 18:03 | -6.10921 | 106.66883 | 43 ft | 13 kts | 278° |
| 2026-04-30 18:04 | -6.11298 | 106.65908 | 45 ft | 144 kts | 248° |
| 2026-04-30 18:05 | -6.12764 | 106.60718 | 1057 ft | 229 kts | 281° |
| 2026-04-30 18:06 | -6.09804 | 106.54530 | 2947 ft | 269 kts | 290° |
| 2026-04-30 18:07 | -6.06827 | 106.47698 | 5615 ft | 275 kts | 323° |
| 2026-04-30 18:08 | -6.01836 | 106.44606 | 7500 ft | 286 kts | 328° |
| 2026-04-30 18:09 | -5.94912 | 106.40266 | 9962 ft | 300 kts | 328° |
| 2026-04-30 18:10 | -5.87160 | 106.35413 | 10995 ft | 354 kts | 328° |
| 2026-04-30 18:11 | -5.78669 | 106.30097 | 13148 ft | 366 kts | 328° |
| 2026-04-30 18:11 | -5.72894 | 106.25084 | 14641 ft | 375 kts | 302° |
| 2026-04-30 18:12 | -5.69386 | 106.17958 | 16048 ft | 383 kts | 297° |
| 2026-04-30 18:13 | -5.67007 | 106.13117 | 16977 ft | 389 kts | 297° |
| 2026-04-30 18:13 | -5.63780 | 106.06552 | 18188 ft | 397 kts | 297° |
| 2026-04-30 18:14 | -5.60924 | 106.00736 | 19078 ft | 402 kts | 297° |
| 2026-04-30 18:15 | -5.57176 | 105.93107 | 20193 ft | 409 kts | 297° |
| 2026-04-30 18:15 | -5.53363 | 105.85349 | 21286 ft | 416 kts | 297° |
| 2026-04-30 18:16 | -5.50783 | 105.80102 | 21983 ft | 421 kts | 297° |
| 2026-04-30 18:16 | -5.48173 | 105.74795 | 22695 ft | 426 kts | 297° |
| 2026-04-30 18:17 | -5.46877 | 105.72159 | 23006 ft | 428 kts | 297° |
| 2026-04-30 18:17 | -5.45554 | 105.69470 | 23350 ft | 430 kts | 297° |
| 2026-04-30 18:17 | -5.42892 | 105.64060 | 23942 ft | 434 kts | 297° |
| 2026-04-30 18:18 | -5.41699 | 105.61272 | 24205 ft | 437 kts | 291° |
| 2026-04-30 18:18 | -5.40646 | 105.58407 | 24467 ft | 439 kts | 291° |
| 2026-04-30 18:18 | -5.39573 | 105.55528 | 24759 ft | 440 kts | 291° |
| 2026-04-30 18:18 | -5.38493 | 105.52644 | 25050 ft | 442 kts | 291° |
| 2026-04-30 18:19 | -5.37407 | 105.49748 | 25320 ft | 444 kts | 291° |
| 2026-04-30 18:19 | -5.36317 | 105.46841 | 25609 ft | 446 kts | 291° |
| 2026-04-30 18:19 | -5.35221 | 105.43921 | 25882 ft | 448 kts | 291° |
| 2026-04-30 18:19 | -5.34119 | 105.40979 | 26167 ft | 450 kts | 291° |
| 2026-04-30 18:20 | -5.33016 | 105.38038 | 26457 ft | 452 kts | 291° |
| 2026-04-30 18:20 | -5.31905 | 105.35077 | 26752 ft | 454 kts | 291° |
| 2026-04-30 18:20 | -5.30801 | 105.32133 | 27039 ft | 456 kts | 291° |
| 2026-04-30 18:20 | -5.29681 | 105.29147 | 27345 ft | 459 kts | 291° |
| 2026-04-30 18:21 | -5.28554 | 105.26143 | 27650 ft | 461 kts | 291° |
| 2026-04-30 18:21 | -5.27423 | 105.23127 | 27975 ft | 463 kts | 291° |
| 2026-04-30 18:21 | -5.26284 | 105.20099 | 28280 ft | 465 kts | 292° |
| 2026-04-30 18:21 | -5.24950 | 105.17136 | 28586 ft | 467 kts | 297° |
| 2026-04-30 18:22 | -5.23521 | 105.14194 | 28916 ft | 470 kts | 297° |
| 2026-04-30 18:22 | -5.20663 | 105.08253 | 29592 ft | 475 kts | 297° |
| 2026-04-30 18:22 | -5.19223 | 105.05255 | 29941 ft | 478 kts | 297° |
| 2026-04-30 18:23 | -5.17777 | 105.02245 | 30259 ft | 480 kts | 297° |
| 2026-04-30 18:23 | -5.16341 | 104.99257 | 30592 ft | 482 kts | 297° |
| 2026-04-30 18:23 | -5.14881 | 104.96220 | 30905 ft | 485 kts | 297° |
| 2026-04-30 18:23 | -5.13411 | 104.93162 | 31240 ft | 487 kts | 297° |
| 2026-04-30 18:24 | -5.10448 | 104.87004 | 31895 ft | 492 kts | 297° |
| 2026-04-30 18:24 | -5.08954 | 104.83899 | 32227 ft | 495 kts | 297° |
| 2026-04-30 18:24 | -5.07455 | 104.80784 | 32543 ft | 497 kts | 297° |
| 2026-04-30 18:25 | -5.05947 | 104.77649 | 32870 ft | 499 kts | 297° |
| 2026-04-30 18:25 | -5.02911 | 104.71343 | 33527 ft | 504 kts | 297° |
| 2026-04-30 18:25 | -5.01382 | 104.68168 | 33847 ft | 507 kts | 297° |
| 2026-04-30 18:26 | -4.98304 | 104.61775 | 34430 ft | 511 kts | 297° |
| 2026-04-30 18:26 | -4.96757 | 104.58563 | 34780 ft | 512 kts | 297° |
| 2026-04-30 18:26 | -4.95208 | 104.55349 | 35161 ft | 511 kts | 297° |
| 2026-04-30 18:27 | -4.92119 | 104.48938 | 35903 ft | 510 kts | 297° |
| 2026-04-30 18:28 | -4.87455 | 104.39380 | 35938 ft | 512 kts | 297° |
| 2026-04-30 18:28 | -4.82734 | 104.29771 | 35942 ft | 512 kts | 297° |
| 2026-04-30 18:29 | -4.76448 | 104.16958 | 35940 ft | 512 kts | 297° |
| 2026-04-30 18:30 | -4.70155 | 104.04138 | 35938 ft | 513 kts | 297° |
| 2026-04-30 18:31 | -4.65423 | 103.94502 | 35945 ft | 513 kts | 297° |
| 2026-04-30 18:32 | -4.60710 | 103.84910 | 35942 ft | 513 kts | 297° |
| 2026-04-30 18:33 | -4.55976 | 103.75278 | 35951 ft | 514 kts | 297° |
| 2026-04-30 18:33 | -4.51231 | 103.65628 | 35956 ft | 514 kts | 297° |
| 2026-04-30 18:34 | -4.46485 | 103.55980 | 35958 ft | 514 kts | 297° |
| 2026-04-30 18:35 | -4.43314 | 103.49536 | 35961 ft | 514 kts | 297° |
| 2026-04-30 18:35 | -4.40151 | 103.43108 | 35966 ft | 515 kts | 297° |
| 2026-04-30 18:36 | -4.35419 | 103.33499 | 35963 ft | 515 kts | 297° |
| 2026-04-30 18:37 | -4.30662 | 103.23839 | 35960 ft | 515 kts | 297° |
| 2026-04-30 18:37 | -4.27486 | 103.17394 | 35967 ft | 516 kts | 297° |
| 2026-04-30 18:38 | -4.24305 | 103.10939 | 35959 ft | 516 kts | 297° |
| 2026-04-30 18:38 | -4.21148 | 103.04534 | 35953 ft | 516 kts | 297° |
| 2026-04-30 18:39 | -4.17969 | 102.98086 | 35949 ft | 515 kts | 297° |
| 2026-04-30 18:39 | -4.14798 | 102.91656 | 35941 ft | 515 kts | 297° |
| 2026-04-30 18:40 | -4.11625 | 102.85224 | 35929 ft | 515 kts | 297° |
| 2026-04-30 18:40 | -4.08991 | 102.79886 | 35922 ft | 514 kts | 297° |
| 2026-04-30 18:41 | -4.05278 | 102.72362 | 35916 ft | 515 kts | 297° |
| 2026-04-30 18:41 | -4.02119 | 102.65964 | 35908 ft | 515 kts | 297° |
| 2026-04-30 18:42 | -4.00529 | 102.62744 | 35909 ft | 515 kts | 297° |